createdAt,value
2018-09-05T00:01:48.990Z,14.83
2018-09-05T00:04:19.440Z,14.70
2018-09-05T00:06:49.922Z,14.84
2018-09-05T00:09:20.707Z,15.00
2018-09-05T00:11:51.078Z,15.02
2018-09-05T00:14:21.337Z,15.05
2018-09-05T00:16:51.609Z,14.90
2018-09-05T00:19:22.268Z,14.91
2018-09-05T00:21:52.572Z,14.80
2018-09-05T00:24:23.382Z,14.68
2018-09-05T00:26:53.802Z,14.65
2018-09-05T00:29:24.200Z,14.21
2018-09-05T00:31:54.626Z,14.43
2018-09-05T00:34:25.334Z,14.48
2018-09-05T00:36:57.077Z,14.46
2018-09-05T00:39:27.420Z,14.70
2018-09-05T00:41:57.648Z,14.53
2018-09-05T00:44:27.916Z,14.57
2018-09-05T00:46:58.410Z,14.48
2018-09-05T00:49:28.664Z,14.43
2018-09-05T00:51:59.116Z,14.54
2018-09-05T00:54:29.592Z,14.56
2018-09-05T00:57:00.180Z,14.57
2018-09-05T00:59:30.777Z,14.44
2018-09-05T01:02:01.608Z,14.46
2018-09-05T01:04:32.524Z,14.35
2018-09-05T01:07:12.274Z,14.41
2018-09-05T01:09:42.980Z,14.32
2018-09-05T01:12:13.309Z,14.38
2018-09-05T01:14:43.804Z,14.45
2018-09-05T01:17:15.508Z,14.35
2018-09-05T01:19:45.729Z,14.31
2018-09-05T01:22:16.145Z,14.23
2018-09-05T01:24:47.427Z,14.22
2018-09-05T01:27:19.336Z,14.09
2018-09-05T01:29:49.848Z,14.02
2018-09-05T01:32:20.201Z,14.14
2018-09-05T01:34:50.489Z,14.03
2018-09-05T01:37:21.322Z,14.04
2018-09-05T01:39:51.606Z,13.88
2018-09-05T01:42:21.928Z,13.83
2018-09-05T01:44:52.310Z,13.97
2018-09-05T01:47:23.275Z,13.98
2018-09-05T01:49:53.688Z,13.83
2018-09-05T01:52:24.079Z,13.92
2018-09-05T01:54:54.976Z,14.00
2018-09-05T01:57:25.295Z,13.88
2018-09-05T01:59:55.675Z,13.71
2018-09-05T02:02:26.470Z,13.64
2018-09-05T02:04:57.629Z,13.60
2018-09-05T02:07:28.112Z,13.49
2018-09-05T02:09:58.556Z,13.80
2018-09-05T02:12:29.099Z,13.67
2018-09-05T02:14:59.717Z,13.56
2018-09-05T02:17:30.289Z,13.50
2018-09-05T02:20:00.768Z,13.45
2018-09-05T02:22:32.128Z,13.40
2018-09-05T02:25:02.768Z,13.25
2018-09-05T02:27:33.463Z,13.33
2018-09-05T02:30:04.142Z,13.28
2018-09-05T02:32:34.540Z,13.19
2018-09-05T02:37:53.301Z,13.39
2018-09-05T02:40:25.867Z,13.42
2018-09-05T02:42:56.430Z,13.45
2018-09-05T02:45:27.097Z,13.47
2018-09-05T02:47:57.588Z,13.41
2018-09-05T02:50:28.072Z,13.21
2018-09-05T02:52:58.854Z,12.99
2018-09-05T02:55:36.388Z,12.96
2018-09-05T02:58:07.458Z,13.02
2018-09-05T03:00:38.452Z,12.90
2018-09-05T03:03:10.516Z,12.99
2018-09-05T03:05:41.075Z,13.29
2018-09-05T03:08:12.576Z,13.44
2018-09-05T03:10:43.198Z,13.26
2018-09-05T03:13:17.877Z,13.21
2018-09-05T03:15:48.529Z,13.26
2018-09-05T03:18:19.068Z,13.11
2018-09-05T03:20:50.078Z,13.15
2018-09-05T03:23:20.488Z,12.98
2018-09-05T03:25:50.856Z,12.94
2018-09-05T03:28:21.705Z,12.84
2018-09-05T03:30:52.070Z,12.81
2018-09-05T03:33:22.428Z,12.87
2018-09-05T03:35:53.329Z,12.66
2018-09-05T03:38:23.698Z,12.51
2018-09-05T03:40:54.018Z,12.72
2018-09-05T03:43:24.334Z,12.49
2018-09-05T03:45:54.699Z,12.45
2018-09-05T03:48:25.155Z,12.48
2018-09-05T03:50:56.498Z,12.45
2018-09-05T03:53:27.935Z,12.27
2018-09-05T03:55:58.212Z,12.53
2018-09-05T03:58:31.115Z,12.73
2018-09-05T04:01:09.754Z,12.67
2018-09-05T04:03:40.241Z,12.53
2018-09-05T04:06:10.757Z,12.57
2018-09-05T04:08:46.290Z,12.70
2018-09-05T04:11:17.902Z,12.73
2018-09-05T04:13:49.504Z,12.52
2018-09-05T04:16:20.399Z,12.38
2018-09-05T04:18:51.252Z,12.24
2018-09-05T04:21:24.090Z,12.49
2018-09-05T04:23:54.347Z,12.57
2018-09-05T04:26:25.609Z,12.54
2018-09-05T04:28:55.864Z,12.47
2018-09-05T04:31:26.725Z,12.35
2018-09-05T04:33:57.203Z,12.43
2018-09-05T04:36:28.131Z,12.41
2018-09-05T04:38:58.350Z,12.47
2018-09-05T04:41:29.451Z,12.40
2018-09-05T04:43:59.794Z,12.36
2018-09-05T04:46:30.623Z,12.37
2018-09-05T04:49:01.081Z,12.45
2018-09-05T04:51:33.455Z,12.40
2018-09-05T04:54:04.714Z,12.43
2018-09-05T04:56:34.872Z,12.38
2018-09-05T04:59:05.108Z,12.20
2018-09-05T05:01:35.527Z,11.81
2018-09-05T05:04:06.097Z,11.95
2018-09-05T05:06:36.338Z,12.18
2018-09-05T05:09:10.687Z,12.15
2018-09-05T05:11:41.755Z,11.98
2018-09-05T05:14:12.508Z,12.16
2018-09-05T05:16:42.877Z,12.12
2018-09-05T05:19:13.148Z,12.02
2018-09-05T05:21:43.348Z,11.89
2018-09-05T05:24:13.630Z,12.08
2018-09-05T05:26:43.873Z,12.25
2018-09-05T05:29:14.603Z,12.39
2018-09-05T05:31:45.115Z,12.38
2018-09-05T05:34:15.434Z,12.24
2018-09-05T05:36:45.792Z,12.29
2018-09-05T05:39:16.346Z,12.52
2018-09-05T05:41:46.737Z,12.75
2018-09-05T05:44:17.077Z,13.08
2018-09-05T05:46:47.561Z,13.08
2018-09-05T05:49:17.928Z,13.22
2018-09-05T05:51:48.320Z,13.20
2018-09-05T05:54:18.596Z,13.18
2018-09-05T05:56:48.997Z,13.34
2018-09-05T05:59:26.519Z,13.62
2018-09-05T06:01:57.829Z,13.50
2018-09-05T06:04:29.996Z,13.45
2018-09-05T06:07:00.292Z,13.43
2018-09-05T06:09:30.852Z,13.40
2018-09-05T06:12:01.988Z,13.50
2018-09-05T06:14:32.411Z,13.77
2018-09-05T06:17:03.262Z,14.11
2018-09-05T06:19:34.081Z,14.36
2018-09-05T06:22:05.482Z,14.17
2018-09-05T06:24:35.931Z,14.44
2018-09-05T06:27:06.148Z,14.74
2018-09-05T06:29:36.508Z,14.97
2018-09-05T06:32:06.769Z,14.97
2018-09-05T06:34:37.134Z,15.00
2018-09-05T06:37:07.717Z,15.23
2018-09-05T06:39:37.995Z,15.31
2018-09-05T06:42:08.565Z,15.54
2018-09-05T06:44:38.736Z,15.64
2018-09-05T06:47:09.520Z,15.62
2018-09-05T06:49:39.649Z,15.70
2018-09-05T06:52:10.052Z,15.71
2018-09-05T06:54:40.144Z,15.82
2018-09-05T06:57:10.332Z,16.07
2018-09-05T06:59:40.984Z,16.22
2018-09-05T07:02:11.512Z,16.38
2018-09-05T07:04:41.788Z,16.58
2018-09-05T07:07:13.141Z,16.39
2018-09-05T07:09:43.217Z,16.70
2018-09-05T07:12:13.437Z,16.55
2018-09-05T07:14:44.269Z,16.69
2018-09-05T07:17:16.834Z,16.86
2018-09-05T07:19:48.691Z,16.83
2018-09-05T07:22:19.250Z,16.75
2018-09-05T07:24:49.852Z,17.01
2018-09-05T07:27:21.260Z,17.15
2018-09-05T07:29:51.568Z,17.21
2018-09-05T07:32:22.011Z,17.48
2018-09-05T07:34:52.404Z,17.68
2018-09-05T07:37:24.536Z,17.67
2018-09-05T07:39:55.540Z,18.00
2018-09-05T07:42:26.783Z,18.45
2018-09-05T07:44:57.593Z,18.47
2018-09-05T07:47:30.712Z,18.79
2018-09-05T07:50:01.296Z,18.83
2018-09-05T07:52:32.255Z,19.03
2018-09-05T07:55:03.519Z,19.01
2018-09-05T07:57:34.007Z,19.11
2018-09-05T08:00:04.479Z,19.56
2018-09-05T08:02:35.331Z,19.62
2018-09-05T08:05:09.465Z,19.84
2018-09-05T08:07:41.114Z,20.03
2018-09-05T08:10:12.597Z,19.90
2018-09-05T08:12:46.209Z,19.93
2018-09-05T08:15:16.423Z,20.35
2018-09-05T08:17:46.910Z,20.52
2018-09-05T08:20:17.999Z,20.77
2018-09-05T08:22:48.420Z,20.82
2018-09-05T08:25:18.585Z,20.86
2018-09-05T08:27:50.270Z,21.28
2018-09-05T08:30:20.477Z,21.38
2018-09-05T08:32:50.801Z,21.36
2018-09-05T08:35:22.087Z,21.26
2018-09-05T08:37:53.384Z,21.17
2018-09-05T08:40:25.590Z,21.69
2018-09-05T08:42:55.953Z,22.12
2018-09-05T08:45:27.326Z,22.30
2018-09-05T08:47:57.566Z,21.93
2018-09-05T08:50:28.286Z,22.16
2018-09-05T08:53:01.590Z,22.35
2018-09-05T08:55:35.699Z,22.74
2018-09-05T08:58:07.361Z,22.77
2018-09-05T09:00:38.014Z,23.13
2018-09-05T09:03:11.348Z,23.29
2018-09-05T09:05:42.184Z,23.06
2018-09-05T09:08:17.497Z,23.37
2018-09-05T09:10:47.842Z,23.28
2018-09-05T09:13:18.048Z,23.43
2018-09-05T09:15:50.372Z,23.51
2018-09-05T09:18:23.780Z,23.53
2018-09-05T09:20:53.932Z,23.84
2018-09-05T09:23:24.462Z,23.96
2018-09-05T09:25:54.812Z,23.91
2018-09-05T09:28:25.039Z,24.00
2018-09-05T09:30:56.410Z,24.20
2018-09-05T09:33:28.384Z,23.87
2018-09-05T09:35:58.570Z,23.59
2018-09-05T09:38:29.821Z,24.25
2018-09-05T09:41:02.592Z,24.74
2018-09-05T09:43:33.360Z,25.31
2018-09-05T09:46:04.151Z,25.08
2018-09-05T09:48:35.384Z,24.76
2018-09-05T09:51:05.927Z,24.77
2018-09-05T09:53:36.875Z,25.30
2018-09-05T09:56:07.599Z,25.72
2018-09-05T09:58:38.513Z,25.66
2018-09-05T10:01:15.208Z,26.05
2018-09-05T10:03:50.871Z,25.81
2018-09-05T10:06:22.968Z,25.49
2018-09-05T10:08:58.138Z,26.08
2018-09-05T10:11:33.477Z,26.12
2018-09-05T10:14:09.004Z,25.64
2018-09-05T10:17:45.396Z,25.38
2018-09-05T10:20:17.521Z,26.15
2018-09-05T10:22:47.828Z,26.24
2018-09-05T10:25:19.116Z,25.47
2018-09-05T10:27:50.192Z,25.93
2018-09-05T10:30:20.504Z,26.34
2018-09-05T10:32:51.187Z,26.59
2018-09-05T10:35:25.740Z,27.01
2018-09-05T10:37:56.127Z,26.93
2018-09-05T10:40:27.497Z,26.54
2018-09-05T10:42:57.866Z,26.60
2018-09-05T10:45:28.257Z,26.61
2018-09-05T10:47:58.555Z,26.51
2018-09-05T10:50:28.856Z,25.85
2018-09-05T10:52:59.001Z,25.00
2018-09-05T10:55:29.239Z,25.33
2018-09-05T10:57:59.418Z,26.07
2018-09-05T11:00:31.141Z,26.22
2018-09-05T11:03:02.596Z,26.79
2018-09-05T11:05:32.881Z,27.30
2018-09-05T11:08:04.591Z,27.19
2018-09-05T11:10:35.016Z,27.02
2018-09-05T11:13:06.152Z,26.95
2018-09-05T11:15:36.470Z,26.37
2018-09-05T11:18:07.316Z,26.73
2018-09-05T11:20:42.547Z,26.04
2018-09-05T11:23:17.301Z,25.49
2018-09-05T11:25:47.808Z,25.87
2018-09-05T11:28:18.103Z,25.41
2018-09-05T11:30:48.399Z,25.45
2018-09-05T11:33:19.600Z,25.38
2018-09-05T11:35:50.040Z,26.37
2018-09-05T11:38:20.577Z,26.87
2018-09-05T11:40:51.268Z,27.36
2018-09-05T11:43:22.605Z,27.32
2018-09-05T11:45:53.685Z,27.22
2018-09-05T11:48:23.941Z,25.31
2018-09-05T11:50:54.307Z,25.23
2018-09-05T11:53:24.596Z,25.50
2018-09-05T11:55:54.864Z,25.04
2018-09-05T11:58:25.133Z,24.43
2018-09-05T12:00:55.423Z,24.64
2018-09-05T12:03:25.729Z,24.24
2018-09-05T12:05:56.639Z,24.42
2018-09-05T12:08:27.052Z,25.32
2018-09-05T12:10:57.451Z,25.71
2018-09-05T12:13:27.592Z,26.13
2018-09-05T12:15:57.821Z,26.33
2018-09-05T12:18:28.939Z,26.04
2018-09-05T12:20:59.579Z,26.60
2018-09-05T12:23:29.888Z,26.87
2018-09-05T12:26:00.247Z,27.04
2018-09-05T12:28:30.785Z,27.02
2018-09-05T12:31:02.269Z,27.05
2018-09-05T12:33:32.540Z,26.77
2018-09-05T12:36:03.613Z,26.36
2018-09-05T12:38:34.224Z,26.76
2018-09-05T12:41:04.469Z,26.78
2018-09-05T12:43:35.128Z,26.60
2018-09-05T12:46:05.399Z,26.65
2018-09-05T12:48:35.719Z,26.81
2018-09-05T12:51:06.452Z,26.74
2018-09-05T12:53:36.697Z,26.65
2018-09-05T12:56:06.891Z,26.66
2018-09-05T12:58:37.238Z,27.01
2018-09-05T13:03:44.204Z,26.93
2018-09-05T13:06:15.691Z,26.72
2018-09-05T13:08:55.391Z,26.89
2018-09-05T13:11:25.710Z,27.04
2018-09-05T13:13:56.196Z,27.03
2018-09-05T13:19:29.500Z,27.22
2018-09-05T13:21:59.617Z,26.80
2018-09-05T13:24:32.339Z,26.41
2018-09-05T13:27:08.728Z,25.89
2018-09-05T13:29:40.215Z,25.73
2018-09-05T13:32:20.755Z,26.16
2018-09-05T13:34:51.183Z,25.73
2018-09-05T13:37:21.499Z,25.99
2018-09-05T13:39:51.924Z,25.78
2018-09-05T13:42:22.223Z,25.69
2018-09-05T13:44:52.791Z,25.30
2018-09-05T13:47:23.528Z,25.08
2018-09-05T13:49:53.925Z,25.08
2018-09-05T13:52:24.240Z,25.34
2018-09-05T13:54:54.558Z,25.69
2018-09-05T13:57:24.896Z,25.94
2018-09-05T13:59:55.178Z,25.72
2018-09-05T14:02:25.523Z,26.01
2018-09-05T14:04:55.798Z,25.78
2018-09-05T14:07:26.363Z,26.04
2018-09-05T14:09:57.033Z,26.19
2018-09-05T14:12:27.471Z,25.99
2018-09-05T14:14:57.771Z,26.10
2018-09-05T14:17:28.130Z,26.29
2018-09-05T14:19:58.446Z,26.10
2018-09-05T14:22:28.941Z,25.15
2018-09-05T14:24:59.100Z,25.80
2018-09-05T14:27:29.470Z,27.15
2018-09-05T14:29:59.673Z,26.79
2018-09-05T14:32:30.001Z,26.25
2018-09-05T14:35:00.543Z,26.02
2018-09-05T14:37:31.192Z,26.58
2018-09-05T14:40:02.792Z,26.32
2018-09-05T14:42:33.228Z,26.56
2018-09-05T14:45:04.359Z,26.69
2018-09-05T14:47:34.660Z,26.26
2018-09-05T14:50:05.891Z,26.02
2018-09-05T14:52:36.205Z,25.89
2018-09-05T14:55:06.420Z,26.12
2018-09-05T14:57:36.843Z,25.83
2018-09-05T15:00:07.593Z,25.65
2018-09-05T15:02:37.798Z,25.45
2018-09-05T15:05:09.078Z,25.19
2018-09-05T15:07:46.797Z,25.01
2018-09-05T15:10:19.101Z,24.81
2018-09-05T15:12:49.992Z,24.83
2018-09-05T15:15:20.499Z,24.96
2018-09-05T15:17:50.777Z,25.18
2018-09-05T15:20:21.096Z,24.94
2018-09-05T15:22:52.012Z,24.78
2018-09-05T15:25:22.365Z,24.99
2018-09-05T15:27:52.594Z,24.88
2018-09-05T15:30:24.019Z,25.09
2018-09-05T15:32:54.520Z,24.99
2018-09-05T15:35:27.100Z,24.69
2018-09-05T15:38:01.536Z,24.84
2018-09-05T15:40:32.685Z,25.03
2018-09-05T15:43:04.426Z,24.92
2018-09-05T15:45:35.799Z,24.85
2018-09-05T15:48:07.684Z,24.83
2018-09-05T15:50:38.106Z,25.04
2018-09-05T15:53:10.930Z,24.88
2018-09-05T15:55:42.914Z,24.78
2018-09-05T15:58:14.651Z,25.04
2018-09-05T16:00:45.431Z,25.07
2018-09-05T16:03:16.392Z,24.81
2018-09-05T16:05:46.677Z,24.74
2018-09-05T16:08:16.939Z,24.86
2018-09-05T16:10:47.468Z,24.99
2018-09-05T16:13:17.984Z,25.25
2018-09-05T16:15:50.807Z,25.06
2018-09-05T16:18:21.528Z,24.92
2018-09-05T16:20:51.827Z,24.58
2018-09-05T16:23:22.443Z,24.63
2018-09-05T16:25:55.453Z,24.43
2018-09-05T16:28:29.699Z,24.23
2018-09-05T16:31:01.474Z,24.11
2018-09-05T16:33:37.565Z,24.16
2018-09-05T16:36:08.777Z,24.23
2018-09-05T16:38:39.811Z,24.20
2018-09-05T16:41:10.591Z,24.13
2018-09-05T16:43:41.172Z,24.21
2018-09-05T16:46:11.571Z,24.17
2018-09-05T16:48:41.975Z,23.85
2018-09-05T16:51:12.340Z,23.91
2018-09-05T16:53:42.708Z,23.88
2018-09-05T16:56:13.294Z,24.11
2018-09-05T16:58:43.672Z,24.15
2018-09-05T17:01:14.107Z,24.16
2018-09-05T17:03:44.350Z,24.17
2018-09-05T17:06:14.627Z,24.19
2018-09-05T17:08:44.993Z,23.92
2018-09-05T17:11:15.433Z,23.68
2018-09-05T17:13:47.452Z,23.66
2018-09-05T17:16:19.710Z,23.36
2018-09-05T17:18:50.344Z,23.44
2018-09-05T17:21:20.669Z,23.38
2018-09-05T17:23:50.926Z,23.21
2018-09-05T17:26:21.309Z,23.38
2018-09-05T17:28:51.639Z,23.14
2018-09-05T17:31:22.613Z,23.23
2018-09-05T17:33:53.176Z,23.05
2018-09-05T17:36:23.506Z,22.92
2018-09-05T17:38:54.101Z,22.77
2018-09-05T17:41:24.477Z,22.62
2018-09-05T17:43:54.941Z,22.56
2018-09-05T17:46:25.960Z,22.41
2018-09-05T17:48:56.451Z,22.38
2018-09-05T17:51:26.763Z,22.31
2018-09-05T17:53:57.013Z,22.23
2018-09-05T17:56:27.563Z,22.15
2018-09-05T17:58:59.317Z,22.04
2018-09-05T18:01:32.453Z,22.01
2018-09-05T18:04:03.881Z,22.07
2018-09-05T18:06:34.280Z,21.91
2018-09-05T18:09:05.956Z,21.80
2018-09-05T18:11:37.448Z,21.73
2018-09-05T18:14:07.843Z,21.62
2018-09-05T18:16:38.361Z,21.54
2018-09-05T18:19:09.547Z,21.51
2018-09-05T18:21:40.255Z,21.46
2018-09-05T18:24:10.792Z,21.31
2018-09-05T18:26:41.367Z,21.31
2018-09-05T18:29:13.569Z,21.22
2018-09-05T18:31:44.218Z,21.20
2018-09-05T18:34:16.465Z,21.16
2018-09-05T18:36:46.959Z,21.03
2018-09-05T18:39:17.750Z,20.81
2018-09-05T18:41:48.021Z,20.76
2018-09-05T18:44:18.376Z,20.76
2018-09-05T18:46:48.676Z,20.79
2018-09-05T18:49:19.029Z,20.60
2018-09-05T18:51:49.628Z,20.46
2018-09-05T18:54:19.904Z,20.37
2018-09-05T18:56:50.243Z,20.17
2018-09-05T18:59:20.683Z,20.21
2018-09-05T19:01:59.476Z,20.25
2018-09-05T19:04:37.604Z,20.05
2018-09-05T19:07:17.868Z,20.03
2018-09-05T19:09:58.056Z,19.86
2018-09-05T19:12:31.789Z,19.85
2018-09-05T19:15:14.292Z,19.74
2018-09-05T19:17:54.948Z,19.72
2018-09-05T19:20:28.064Z,19.75
2018-09-05T19:23:05.751Z,19.65
2018-09-05T19:25:35.915Z,19.64
2018-09-05T19:28:16.557Z,19.37
2018-09-05T19:30:48.785Z,19.56
2018-09-05T19:33:19.183Z,19.46
2018-09-05T19:35:49.756Z,19.33
2018-09-05T19:38:20.336Z,18.90
2018-09-05T19:40:50.764Z,18.91
2018-09-05T19:43:22.071Z,18.87
2018-09-05T19:45:52.488Z,18.76
2018-09-05T19:48:23.154Z,18.87
2018-09-05T19:50:54.888Z,18.50
2018-09-05T19:53:25.804Z,17.85
2018-09-05T19:55:56.306Z,17.78
2018-09-05T19:58:26.733Z,17.71
2018-09-05T20:00:57.125Z,18.24
2018-09-05T20:03:27.351Z,18.36
2018-09-05T20:05:57.580Z,18.59
2018-09-05T20:08:27.860Z,18.55
2018-09-05T20:10:59.340Z,18.41
2018-09-05T20:13:30.528Z,18.45
2018-09-05T20:16:01.663Z,18.18
2018-09-05T20:18:32.886Z,18.25
2018-09-05T20:21:03.737Z,17.57
2018-09-05T20:23:34.384Z,17.67
2018-09-05T20:26:07.291Z,17.96
2018-09-05T20:28:38.175Z,18.05
2018-09-05T20:31:09.002Z,18.09
2018-09-05T20:33:39.506Z,17.88
2018-09-05T20:36:10.099Z,17.87
2018-09-05T20:38:47.001Z,17.73
2018-09-05T20:41:17.842Z,17.67
2018-09-05T20:43:48.672Z,17.55
2018-09-05T20:46:19.248Z,17.35
2018-09-05T20:48:49.685Z,17.34
2018-09-05T20:51:20.143Z,17.44
2018-09-05T20:53:50.521Z,17.31
2018-09-05T20:56:21.784Z,17.35
2018-09-05T20:58:52.243Z,17.26
2018-09-05T21:01:22.732Z,17.20
2018-09-05T21:03:53.004Z,17.27
2018-09-05T21:06:23.628Z,17.09
2018-09-05T21:08:53.951Z,17.04
2018-09-05T21:11:25.561Z,17.02
2018-09-05T21:13:56.840Z,17.15
2018-09-05T21:16:27.135Z,17.02
2018-09-05T21:18:57.669Z,17.09
2018-09-05T21:21:28.038Z,16.67
2018-09-05T21:23:58.216Z,16.66
2018-09-05T21:26:28.787Z,16.61
2018-09-05T21:28:59.016Z,16.97
2018-09-05T21:31:29.427Z,17.10
2018-09-05T21:33:59.836Z,16.90
2018-09-05T21:36:30.519Z,16.76
2018-09-05T21:39:00.811Z,16.84
2018-09-05T21:41:31.366Z,16.89
2018-09-05T21:44:02.004Z,16.82
2018-09-05T21:46:32.469Z,16.84
2018-09-05T21:49:03.302Z,16.68
2018-09-05T21:51:33.840Z,16.72
2018-09-05T21:54:04.082Z,16.58
2018-09-05T21:56:34.435Z,16.30
2018-09-05T21:59:04.795Z,16.31
2018-09-05T22:01:34.952Z,16.17
2018-09-05T22:04:05.344Z,16.07
2018-09-05T22:06:36.252Z,15.90
2018-09-05T22:09:09.820Z,16.13
2018-09-05T22:11:40.118Z,16.28
2018-09-05T22:14:10.390Z,16.30
2018-09-05T22:16:40.614Z,16.42
2018-09-05T22:19:10.872Z,16.46
2018-09-05T22:21:41.185Z,16.41
2018-09-05T22:24:11.625Z,16.33
2018-09-05T22:26:42.099Z,16.24
2018-09-05T22:29:12.451Z,16.02
2018-09-05T22:31:43.054Z,16.06
2018-09-05T22:34:13.387Z,15.93
2018-09-05T22:36:43.831Z,16.16
2018-09-05T22:39:14.257Z,16.22
2018-09-05T22:41:44.524Z,16.21
2018-09-05T22:44:25.420Z,16.15
2018-09-05T22:47:06.311Z,16.29
2018-09-05T22:50:04.958Z,16.35
2018-09-05T22:54:57.355Z,16.16
2018-09-05T23:00:42.608Z,15.90
2018-09-05T23:05:29.389Z,16.10
2018-09-05T23:08:22.005Z,15.99
2018-09-05T23:11:03.708Z,16.07
2018-09-05T23:14:43.304Z,15.90
2018-09-05T23:18:21.713Z,15.66
2018-09-05T23:21:27.348Z,14.69
2018-09-05T23:24:02.595Z,15.32
2018-09-05T23:26:32.910Z,15.52
2018-09-05T23:29:03.931Z,15.34
2018-09-05T23:31:34.416Z,14.75
2018-09-05T23:34:04.985Z,15.32
2018-09-05T23:36:35.540Z,15.40
2018-09-05T23:39:07.528Z,15.37
2018-09-05T23:41:37.683Z,15.65
2018-09-05T23:44:08.076Z,15.61
2018-09-05T23:46:38.663Z,15.64
2018-09-05T23:49:11.017Z,15.57
2018-09-05T23:51:43.001Z,15.54
2018-09-05T23:54:13.643Z,15.59
2018-09-05T23:56:44.060Z,15.47
2018-09-05T23:59:14.440Z,15.24
